Alba, PA

7:03 PM EDT on March 30, 2015 (GMT -0400)
Southside Rd | | Change Station
CLOSE
Current Station
Personal Weather Station
Location: Canton, PA
Elevation: 1335 ft
Nearby Weather Stations

Elev 1335 ft 41.65 °N, 76.83 °W | Updated 0 second ago

Overcast
Overcast
37.4 °F
Feels Like 30 °F
N
11.4
Wind Variable Wind from NW
Gusts 11.4 mph

Today
High -- | Low -- °F
--% Chance of Precip.
Yesterday
High -- | Low -- °F
Precip. -- in
6:54 AM 7:30 PM
Waxing Gibbous, 82% visible
Pressure 29.83 in
Visibility 10.0 miles
Clouds Few 2100 ft
Scattered Clouds 2700 ft
Overcast 3400 ft
Windchill 30 °F
Dew Point 32 °F
Humidity 82%
Rainfall 0.00 in
Snow Depth Not available.
UV 0 out of 12
Pollen 6.30 out of 12
Air Quality Not available.
Flu Activity Not available.
METAR KELM 302253Z AUTO 24011KT 10SM -RA FEW021 SCT027 OVC034 04/01 A2981 RMK AO2 SLP101 P0000 T00390011

More Conditions Fewer Conditions

Pressure 29.83 in
Visibility 10.0 miles
Clouds Few 2100 ft
Scattered Clouds 2700 ft
Overcast 3400 ft
Windchill 30 °F
Dew Point 32 °F
Humidity 82%
Rainfall 0.00 in
Snow Depth Not available.
UV 0 out of 12
Pollen 6.30 out of 12
Air Quality Not available.
Flu Activity Not available.
METAR KELM 302253Z AUTO 24011KT 10SM -RA FEW021 SCT027 OVC034 04/01 A2981 RMK AO2 SLP101 P0000 T00390011

More Conditions Fewer Conditions

10-Day Weather Forecast

Almanac

Astronomy

Mar. 30, 2015 Rise Set
Actual Time
Civil Twilight
Nautical Twilight
Astronomical Twilight
Moon
Length of Visible Light
Length of Day
Tomorrow will be .
, % of the Moon is Illuminated

Today's Extremes

State Highs State Lows

Community

WunderPhotos

Upload Photos

1,809,617 photos uploaded!

WunderBlogs® & News

Nearby

Air Quality

  Air Quality AQ Index Pollutant
Not available.

Snow Depth

Station Depth Elevation

Earthquake Activity

City Distance Mag. Time & Date
Minimum magnitude displayed is 2.5.

Coastal Water Temperatures

Place Temperature

Stations

Nearby Weather Stations

Station Location Temp. Windchill Dew Point Humidity Wind Precip. Elev Updated Type